Time;durP1;ratioP1;P1;durP2;ratioP2;P2;SDS_P1;SDS_P2;PMS_P1;PMS_P2;Temp;Humidity;BMP_temperature;BMP_pressure;BME280_temperature;BME280_humidity;BME280_pressure;Samples;Min_cycle;Max_cycle;Signal;HPM_P1;HPM_P2
2022/09/06 00:00:05;;;;;;;3.95;1.20;;;16.20;99.90;;;;;;2603675;54;20033;31
2022/09/06 00:02:45;;;;;;;2.90;1.20;;;16.20;99.90;;;;;;2603665;54;20853;31
2022/09/06 00:05:22;;;;;;;2.95;1.30;;;16.20;99.90;;;;;;2621966;46;20030;31
2022/09/06 00:07:56;;;;;;;7.57;1.58;;;16.10;99.90;;;;;;2603465;54;20577;31
2022/09/06 00:10:31;;;;;;;2.63;1.70;;;16.10;99.90;;;;;;2603515;54;20027;31
2022/09/06 00:13:06;;;;;;;2.55;1.13;;;16.10;99.90;;;;;;2603491;54;20027;31
2022/09/06 00:15:40;;;;;;;3.03;1.23;;;16.10;99.90;;;;;;2622224;46;20049;31
2022/09/06 00:18:15;;;;;;;3.30;1.50;;;16.00;99.90;;;;;;2622071;46;20037;31
2022/09/06 00:20:55;;;;;;;2.63;1.27;;;16.00;99.90;;;;;;2603492;54;20057;31
2022/09/06 00:23:30;;;;;;;5.10;1.25;;;15.90;99.90;;;;;;2603511;54;20243;31
2022/09/06 00:26:05;;;;;;;2.60;1.17;;;15.90;99.90;;;;;;2603688;54;20026;31
2022/09/06 00:28:40;;;;;;;5.63;1.33;;;15.80;99.90;;;;;;2603319;54;20027;31
2022/09/06 00:31:15;;;;;;;3.65;1.00;;;15.80;99.90;;;;;;2603676;54;20892;31
2022/09/06 00:33:50;;;;;;;4.17;1.60;;;15.80;99.90;;;;;;2603570;54;20062;31
2022/09/06 00:36:31;;;;;;;3.28;1.35;;;15.70;99.90;;;;;;2773368;31;20635;31
2022/09/06 00:39:06;;;;;;;2.23;1.00;;;15.70;99.90;;;;;;2621980;46;20031;31
2022/09/06 00:41:42;;;;;;;5.30;1.00;;;15.80;99.90;;;;;;2603500;54;20030;31
2022/09/06 00:44:17;;;;;;;3.97;0.80;;;15.60;99.90;;;;;;2603371;54;20317;31
2022/09/06 00:46:53;;;;;;;7.53;1.15;;;15.70;99.90;;;;;;2622123;46;20104;31
2022/09/06 00:49:29;;;;;;;4.88;0.98;;;15.60;99.90;;;;;;2621691;46;20877;31
2022/09/06 00:52:08;;;;;;;1.95;1.10;;;15.50;99.90;;;;;;2603563;54;20034;31
2022/09/06 00:54:42;;;;;;;5.75;1.50;;;15.50;99.90;;;;;;2603479;54;20836;31
2022/09/06 00:57:17;;;;;;;6.23;1.10;;;15.50;99.90;;;;;;2603504;54;20033;31
2022/09/06 00:59:52;;;;;;;2.92;1.38;;;15.40;99.90;;;;;;2603284;54;20031;31
2022/09/06 01:02:30;;;;;;;3.50;1.00;;;15.40;99.90;;;;;;2603312;54;20077;31
2022/09/06 01:05:03;;;;;;;3.53;1.15;;;15.30;99.90;;;;;;2603485;54;20026;31
2022/09/06 01:07:53;;;;;;;3.08;1.10;;;15.30;99.90;;;;;;2603092;54;20916;31
2022/09/06 01:10:38;;;;;;;3.70;1.30;;;15.30;99.90;;;;;;2603434;54;20863;31
2022/09/06 01:13:21;;;;;;;2.85;1.02;;;15.30;99.90;;;;;;2603432;54;20732;31
2022/09/06 01:15:59;;;;;;;3.15;1.45;;;15.20;99.90;;;;;;2621588;46;20868;31
2022/09/06 01:18:38;;;;;;;3.87;1.43;;;15.20;99.90;;;;;;2720244;39;22439;31
2022/09/06 01:21:20;;;;;;;3.10;1.20;;;15.20;99.90;;;;;;2602463;54;20855;31
2022/09/06 01:24:33;;;;;;;6.55;1.40;;;15.20;99.90;;;;;;2603315;54;20117;31
2022/09/06 01:27:23;;;;;;;3.90;1.40;;;15.20;99.90;;;;;;2603148;54;20804;31
2022/09/06 01:30:01;;;;;;;6.53;1.60;;;15.20;99.90;;;;;;2603252;54;20079;31
2022/09/06 01:32:42;;;;;;;4.70;1.63;;;15.10;99.90;;;;;;2603486;54;20034;31
2022/09/06 01:35:21;;;;;;;3.45;1.25;;;15.20;99.90;;;;;;2603215;54;20089;31
2022/09/06 01:37:58;;;;;;;2.83;1.20;;;15.10;99.90;;;;;;2603157;54;20022;31
2022/09/06 01:40:35;;;;;;;5.40;1.30;;;15.10;99.90;;;;;;2603148;54;21001;31
2022/09/06 01:43:12;;;;;;;4.30;1.52;;;15.10;99.90;;;;;;2603117;54;20648;31
2022/09/06 01:45:54;;;;;;;3.67;1.50;;;15.10;99.90;;;;;;2603241;54;20030;31
2022/09/06 01:48:35;;;;;;;5.28;1.75;;;15.10;99.90;;;;;;2621714;46;20737;31
2022/09/06 01:51:17;;;;;;;7.10;1.63;;;15.00;99.90;;;;;;2603269;54;20109;31
2022/09/06 01:54:02;;;;;;;5.65;1.30;;;15.20;99.90;;;;;;2603247;54;20030;31
2022/09/06 01:56:45;;;;;;;3.15;1.30;;;15.00;99.90;;;;;;2621625;46;20030;31
2022/09/06 01:59:41;;;;;;;3.95;1.35;;;15.00;99.90;;;;;;2603224;54;20593;31
2022/09/06 02:02:20;;;;;;;5.68;1.08;;;15.00;99.90;;;;;;2603026;54;20026;31
2022/09/06 02:04:58;;;;;;;3.23;1.50;;;15.00;99.90;;;;;;2603296;54;20026;31
2022/09/06 02:07:33;;;;;;;3.58;1.17;;;15.00;99.90;;;;;;2603206;54;20882;31
2022/09/06 02:10:09;;;;;;;3.75;1.70;;;15.00;99.90;;;;;;2621421;46;20937;31
2022/09/06 02:12:44;;;;;;;7.32;1.63;;;15.00;99.90;;;;;;2603114;54;20313;31
2022/09/06 02:15:20;;;;;;;3.07;1.10;;;14.90;99.90;;;;;;2603290;54;20026;31
2022/09/06 02:18:00;;;;;;;4.57;1.43;;;14.90;99.90;;;;;;2603113;54;20062;31
2022/09/06 02:20:36;;;;;;;3.97;1.23;;;14.80;99.90;;;;;;2602983;54;20034;31
2022/09/06 02:23:12;;;;;;;2.40;1.20;;;14.80;99.90;;;;;;2621573;46;20583;31
2022/09/06 02:25:51;;;;;;;6.25;1.15;;;14.80;99.90;;;;;;2602966;54;20663;31
2022/09/06 02:28:26;;;;;;;4.10;1.50;;;14.70;99.90;;;;;;2603256;54;20053;31
2022/09/06 02:31:02;;;;;;;5.25;1.50;;;14.70;99.90;;;;;;2603013;54;20089;31
2022/09/06 02:33:39;;;;;;;6.45;1.50;;;14.70;99.90;;;;;;2621423;46;20037;31
2022/09/06 02:36:14;;;;;;;5.55;1.20;;;14.60;99.90;;;;;;2621222;47;20982;31
2022/09/06 02:38:49;;;;;;;4.60;1.30;;;14.60;99.90;;;;;;2603022;54;20801;31
2022/09/06 02:41:26;;;;;;;3.17;1.13;;;14.50;99.90;;;;;;2603003;54;20886;31
2022/09/06 02:44:01;;;;;;;5.50;1.10;;;14.50;99.90;;;;;;2772917;31;20460;31
2022/09/06 02:46:36;;;;;;;6.25;1.70;;;14.50;99.90;;;;;;2701316;39;20504;31
2022/09/06 02:49:13;;;;;;;2.60;1.40;;;14.40;99.90;;;;;;2701319;39;20512;31
2022/09/06 02:51:48;;;;;;;3.90;1.30;;;14.30;99.90;;;;;;2603037;54;21011;31
2022/09/06 02:54:22;;;;;;;2.88;1.40;;;14.30;99.90;;;;;;2621163;47;20030;31
2022/09/06 02:56:57;;;;;;;3.25;1.30;;;14.30;99.90;;;;;;2621623;47;20033;31
2022/09/06 02:59:34;;;;;;;5.35;1.45;;;14.30;99.90;;;;;;2602872;54;20808;31
2022/09/06 03:02:08;;;;;;;2.33;1.05;;;14.20;99.90;;;;;;2621640;47;20033;31
2022/09/06 03:04:45;;;;;;;6.78;1.20;;;14.20;99.90;;;;;;2621539;47;20026;31
2022/09/06 03:07:23;;;;;;;5.40;1.80;;;14.10;99.90;;;;;;2602926;54;20049;31
2022/09/06 03:09:57;;;;;;;6.10;3.43;;;14.10;99.90;;;;;;2603162;54;20027;31
2022/09/06 03:12:33;;;;;;;8.73;7.43;;;14.00;99.90;;;;;;2602825;54;20857;31
2022/09/06 03:15:10;;;;;;;7.93;6.32;;;14.00;99.90;;;;;;2602980;54;20569;31
2022/09/06 03:17:44;;;;;;;8.02;5.47;;;14.00;99.90;;;;;;2621449;47;20100;31
2022/09/06 03:20:22;;;;;;;4.27;3.40;;;13.90;99.90;;;;;;2603067;54;20030;31
2022/09/06 03:22:58;;;;;;;8.30;3.72;;;13.90;99.90;;;;;;2602900;54;20757;31
2022/09/06 03:25:33;;;;;;;3.17;1.50;;;13.80;99.90;;;;;;2602871;54;20136;31
2022/09/06 03:28:06;;;;;;;7.40;6.35;;;13.80;99.90;;;;;;2602939;54;20112;31
2022/09/06 03:30:41;;;;;;;44.43;40.30;;;13.80;99.90;;;;;;2622153;47;20878;31
2022/09/06 03:33:16;;;;;;;21.38;19.23;;;13.80;99.90;;;;;;2603671;54;21060;31
2022/09/06 03:35:55;;;;;;;63.78;57.67;;;13.70;99.90;;;;;;2603589;54;20572;31
2022/09/06 03:38:30;;;;;;;41.65;37.60;;;13.70;99.90;;;;;;2603539;54;20154;31
2022/09/06 03:41:04;;;;;;;23.20;20.85;;;13.70;99.90;;;;;;2603566;54;20899;31
2022/09/06 03:43:39;;;;;;;28.80;25.73;;;13.60;99.90;;;;;;2603601;54;21315;31
2022/09/06 03:46:12;;;;;;;31.77;28.27;;;13.70;99.90;;;;;;2603664;54;21021;31
2022/09/06 03:48:48;;;;;;;18.40;12.75;;;13.60;99.90;;;;;;2622180;46;20113;31
2022/09/06 03:51:26;;;;;;;9.80;8.90;;;13.60;99.90;;;;;;2603572;54;20061;31
2022/09/06 03:54:01;;;;;;;5.30;4.03;;;13.70;99.90;;;;;;2773741;31;20592;31
2022/09/06 03:56:36;;;;;;;3.47;2.05;;;13.70;99.90;;;;;;2602891;54;20035;31
2022/09/06 03:59:11;;;;;;;2.95;1.50;;;13.70;99.90;;;;;;2603488;54;20806;31
2022/09/06 04:01:46;;;;;;;5.40;1.77;;;13.70;99.90;;;;;;2603523;54;20839;31
2022/09/06 04:04:20;;;;;;;3.43;1.50;;;13.70;99.90;;;;;;2603571;54;20145;31
2022/09/06 04:06:58;;;;;;;3.35;1.90;;;13.70;99.90;;;;;;2603574;54;19985;31
2022/09/06 04:09:33;;;;;;;4.13;2.37;;;13.70;99.90;;;;;;2702288;39;20493;31
2022/09/06 04:12:08;;;;;;;9.10;2.58;;;13.70;99.90;;;;;;2603857;54;20920;31
2022/09/06 04:14:43;;;;;;;5.75;1.80;;;13.70;99.90;;;;;;2603575;54;20161;31
2022/09/06 04:17:18;;;;;;;4.10;1.70;;;13.60;99.90;;;;;;2622174;46;20093;31
2022/09/06 04:19:54;;;;;;;6.10;2.00;;;13.60;99.90;;;;;;2603669;54;20353;31
2022/09/06 04:22:31;;;;;;;;;;;13.60;99.90;;;;;;2603793;54;20940;31
2022/09/06 04:25:06;;;;;;;4.73;1.73;;;13.60;99.90;;;;;;2603438;54;20870;31
2022/09/06 04:27:41;;;;;;;4.20;1.70;;;13.60;99.90;;;;;;2622182;46;20744;31
2022/09/06 04:30:16;;;;;;;4.18;1.65;;;13.60;99.90;;;;;;2622400;46;21209;31
2022/09/06 04:32:54;;;;;;;7.40;2.07;;;13.60;99.90;;;;;;2792062;31;20619;31
2022/09/06 04:35:28;;;;;;;5.63;1.70;;;13.60;99.90;;;;;;2603670;54;20784;31
2022/09/06 04:38:05;;;;;;;5.25;1.70;;;13.60;99.90;;;;;;2603471;54;20970;31
2022/09/06 04:40:40;;;;;;;5.18;1.83;;;13.60;99.90;;;;;;2603213;54;20843;31
2022/09/06 04:43:15;;;;;;;4.28;1.92;;;13.60;99.90;;;;;;2603639;54;20788;31
2022/09/06 04:45:50;;;;;;;8.75;2.10;;;13.60;99.90;;;;;;2603463;54;20023;31
2022/09/06 04:48:25;;;;;;;4.55;1.80;;;13.60;99.90;;;;;;2621948;46;20764;31
2022/09/06 04:51:03;;;;;;;6.03;1.77;;;13.70;99.90;;;;;;2603621;54;20862;31
2022/09/06 04:53:39;;;;;;;7.40;3.80;;;13.70;99.90;;;;;;2621418;46;20863;31
2022/09/06 04:56:15;;;;;;;5.75;3.67;;;13.60;99.90;;;;;;2602572;54;20939;31
2022/09/06 04:58:50;;;;;;;6.95;2.95;;;13.70;99.90;;;;;;2603480;54;20744;31
2022/09/06 05:01:25;;;;;;;8.10;4.13;;;13.70;99.90;;;;;;2621878;46;20182;31
2022/09/06 05:04:00;;;;;;;3.63;2.00;;;13.70;99.90;;;;;;2701918;39;21673;31
2022/09/06 05:06:35;;;;;;;6.40;2.20;;;13.80;99.90;;;;;;2603339;54;20030;31
2022/09/06 05:09:13;;;;;;;6.32;2.45;;;13.70;99.90;;;;;;2603314;54;20388;31
2022/09/06 05:11:48;;;;;;;4.72;2.22;;;13.80;99.90;;;;;;2603336;54;20795;31
2022/09/06 05:14:23;;;;;;;5.50;2.55;;;13.90;99.90;;;;;;2603256;54;20837;31
2022/09/06 05:16:58;;;;;;;7.47;2.78;;;13.80;99.90;;;;;;2603495;54;20558;31
2022/09/06 05:19:33;;;;;;;6.60;2.00;;;13.90;99.90;;;;;;2603318;54;20023;31
2022/09/06 05:22:08;;;;;;;7.70;2.25;;;13.90;99.90;;;;;;2621726;46;20084;31
2022/09/06 05:24:46;;;;;;;4.90;2.00;;;13.90;99.90;;;;;;2621975;46;20878;31
2022/09/06 05:27:21;;;;;;;6.10;1.93;;;13.90;99.90;;;;;;2773472;31;20627;31
2022/09/06 05:29:57;;;;;;;5.28;1.50;;;14.00;99.90;;;;;;2603283;54;19989;31
2022/09/06 05:32:31;;;;;;;;;;;13.90;99.90;;;;;;2603472;54;20052;31
2022/09/06 05:35:07;;;;;;;5.73;1.50;;;14.00;99.90;;;;;;2603306;54;20723;31
2022/09/06 05:37:42;;;;;;;4.18;1.58;;;14.00;99.90;;;;;;2621805;46;20860;31
2022/09/06 05:40:20;;;;;;;3.83;2.10;;;14.00;99.90;;;;;;2602933;54;20109;31
2022/09/06 05:42:55;;;;;;;4.20;2.00;;;14.10;99.90;;;;;;2603170;54;20098;31
2022/09/06 05:45:30;;;;;;;8.15;2.05;;;14.10;99.90;;;;;;2621836;46;20033;31
2022/09/06 05:48:05;;;;;;;5.55;1.52;;;14.50;99.90;;;;;;2603316;54;20038;31
2022/09/06 05:50:40;;;;;;;2.60;1.70;;;14.80;99.90;;;;;;2603254;54;20092;31
2022/09/06 05:53:15;;;;;;;3.92;2.00;;;15.20;99.90;;;;;;2621255;46;20854;31
2022/09/06 05:55:53;;;;;;;5.07;1.63;;;15.60;99.90;;;;;;2603253;54;21368;31
2022/09/06 05:58:27;;;;;;;4.32;2.03;;;16.00;99.90;;;;;;2603210;54;20027;31
2022/09/06 06:01:13;;;;;;;7.07;2.28;;;16.40;99.90;;;;;;2603147;54;20827;31
2022/09/06 06:03:52;;;;;;;4.32;1.70;;;16.90;99.90;;;;;;2603333;54;20539;31
2022/09/06 06:06:28;;;;;;;4.53;1.98;;;17.00;99.90;;;;;;2603174;54;20108;31
2022/09/06 06:09:03;;;;;;;3.50;1.80;;;17.10;99.90;;;;;;2603401;54;20001;31
2022/09/06 06:11:41;;;;;;;7.43;2.15;;;17.20;99.90;;;;;;2603108;54;20912;31
2022/09/06 06:14:16;;;;;;;3.53;1.50;;;17.10;99.90;;;;;;2603097;54;20092;31
2022/09/06 06:16:52;;;;;;;5.82;1.77;;;17.00;99.90;;;;;;2603067;54;20030;31
2022/09/06 06:19:28;;;;;;;4.07;2.25;;;16.90;99.90;;;;;;2603165;54;20027;31
2022/09/06 06:22:02;;;;;;;;;;;17.10;99.90;;;;;;2603411;54;20037;31
2022/09/06 06:24:39;;;;;;;5.80;1.80;;;17.20;99.90;;;;;;2603144;54;20753;31
2022/09/06 06:27:17;;;;;;;5.15;1.33;;;17.10;99.90;;;;;;2602219;54;20934;31
2022/09/06 06:29:52;;;;;;;4.78;1.98;;;17.00;99.90;;;;;;2603049;54;20850;31
2022/09/06 06:32:28;;;;;;;6.95;2.20;;;16.90;99.90;;;;;;2602928;54;20926;31
2022/09/06 06:35:02;;;;;;;9.23;1.92;;;16.80;99.90;;;;;;2791405;31;20831;31
2022/09/06 06:37:37;;;;;;;8.00;2.10;;;16.60;99.90;;;;;;2603038;54;20031;31
2022/09/06 06:40:13;;;;;;;4.72;1.95;;;16.50;99.90;;;;;;2602923;54;20048;31
2022/09/06 06:42:50;;;;;;;;;;;16.40;99.90;;;;;;2621316;47;20034;31
2022/09/06 06:45:25;;;;;;;6.22;1.60;;;16.30;99.90;;;;;;2603306;54;20740;31
2022/09/06 06:48:01;;;;;;;4.57;1.70;;;16.20;99.90;;;;;;2602921;54;20097;31
2022/09/06 06:50:35;;;;;;;;;;;16.20;99.90;;;;;;2603290;54;20343;31
2022/09/06 06:53:11;;;;;;;5.13;1.70;;;16.10;99.90;;;;;;2621561;47;19935;31
2022/09/06 06:55:49;;;;;;;5.60;1.47;;;16.00;99.90;;;;;;2603009;54;20891;31
2022/09/06 06:58:26;;;;;;;5.47;2.20;;;16.00;99.90;;;;;;2621392;47;20030;31
2022/09/06 07:01:05;;;;;;;5.70;1.90;;;16.00;99.90;;;;;;2603154;54;20045;31
2022/09/06 07:03:41;;;;;;;6.18;1.60;;;15.90;99.90;;;;;;2615362;47;20873;31
2022/09/06 07:06:16;;;;;;;7.90;1.98;;;15.90;99.90;;;;;;2603906;54;20042;31
2022/09/06 07:08:52;;;;;;;4.07;1.77;;;15.90;99.90;;;;;;2603760;54;20894;31
2022/09/06 07:11:27;;;;;;;;;;;15.90;99.90;;;;;;2617038;46;20050;31
2022/09/06 07:14:05;;;;;;;5.20;1.90;;;15.90;99.90;;;;;;2604100;54;20799;31
2022/09/06 07:16:41;;;;;;;4.68;1.90;;;15.80;99.90;;;;;;2603987;54;20839;31
2022/09/06 07:19:19;;;;;;;7.97;1.65;;;16.00;99.90;;;;;;2603618;54;20820;31
2022/09/06 07:22:19;;;;;;;5.57;1.85;;;15.90;99.90;;;;;;2603826;54;20093;31
2022/09/06 07:24:54;;;;;;;7.25;2.40;;;15.80;99.90;;;;;;2604074;54;19954;31
2022/09/06 07:27:29;;;;;;;6.82;2.30;;;15.80;99.90;;;;;;2622050;46;20022;31
2022/09/06 07:30:23;;;;;;;8.60;3.80;;;15.80;99.90;;;;;;2603627;54;20030;31
2022/09/06 07:33:00;;;;;;;8.13;3.10;;;15.80;99.90;;;;;;2622161;46;20038;31
2022/09/06 07:35:39;;;;;;;11.43;3.10;;;15.80;99.90;;;;;;2603880;54;20026;31
2022/09/06 07:38:15;;;;;;;4.93;2.25;;;15.90;99.90;;;;;;2622300;46;20105;31
2022/09/06 07:40:54;;;;;;;;;;;15.90;99.90;;;;;;2603664;54;20878;31
2022/09/06 07:43:30;;;;;;;6.20;2.80;;;15.90;99.90;;;;;;2603825;54;19941;31
2022/09/06 07:46:08;;;;;;;;;;;16.00;99.90;;;;;;2603747;54;20026;31
2022/09/06 07:48:45;;;;;;;6.43;2.55;;;15.90;99.90;;;;;;2603459;54;20757;31
2022/09/06 07:51:21;;;;;;;5.70;2.40;;;16.00;99.90;;;;;;2603478;54;20038;31
2022/09/06 07:53:55;;;;;;;5.45;2.35;;;16.00;99.90;;;;;;2720613;39;22329;31
2022/09/06 07:56:51;;;;;;;12.35;2.45;;;16.10;99.90;;;;;;2622200;46;19942;31
2022/09/06 07:59:26;;;;;;;4.95;2.70;;;16.00;99.90;;;;;;2702427;39;21083;31
2022/09/06 08:02:06;;;;;;;5.03;2.07;;;16.10;99.90;;;;;;2603859;54;20117;31
2022/09/06 08:04:52;;;;;;;8.75;2.13;;;16.20;99.90;;;;;;2603596;54;21163;31
2022/09/06 08:07:30;;;;;;;8.75;2.42;;;16.30;99.90;;;;;;2603357;54;20825;31
2022/09/06 08:10:16;;;;;;;5.50;2.00;;;16.40;99.90;;;;;;2603810;54;20026;31
2022/09/06 08:12:55;;;;;;;8.07;2.25;;;16.50;99.90;;;;;;2603873;54;20867;31
2022/09/06 08:15:32;;;;;;;5.70;2.10;;;16.50;99.90;;;;;;2603422;54;20728;31
2022/09/06 08:18:10;;;;;;;3.22;1.90;;;16.70;99.90;;;;;;2603595;54;20022;31
2022/09/06 08:20:47;;;;;;;6.85;2.67;;;16.80;99.90;;;;;;2603469;54;20023;31
2022/09/06 08:23:23;;;;;;;4.95;2.35;;;17.00;99.90;;;;;;2603279;54;20037;31
2022/09/06 08:25:59;;;;;;;;;;;17.10;99.90;;;;;;2603829;54;20814;31
2022/09/06 08:28:34;;;;;;;7.85;2.30;;;17.30;99.90;;;;;;2621725;46;19941;31
2022/09/06 08:31:10;;;;;;;4.40;2.30;;;17.60;99.90;;;;;;2603413;54;20042;31
2022/09/06 08:33:48;;;;;;;6.45;1.83;;;18.00;99.90;;;;;;2603454;54;20033;31
2022/09/06 08:36:26;;;;;;;6.10;2.50;;;18.10;99.90;;;;;;2603244;54;20044;31
2022/09/06 08:39:01;;;;;;;7.50;1.90;;;18.10;99.90;;;;;;2621761;46;20031;31
2022/09/06 08:41:40;;;;;;;5.80;1.83;;;18.20;99.90;;;;;;2603573;54;20033;31
2022/09/06 08:44:14;;;;;;;9.18;2.72;;;18.30;99.90;;;;;;2621896;46;20038;31
2022/09/06 08:47:11;;;;;;;5.78;2.17;;;18.50;99.90;;;;;;2603116;54;20032;31
2022/09/06 08:49:51;;;;;;;5.35;2.05;;;19.00;99.90;;;;;;2603776;54;20032;31
2022/09/06 08:52:54;;;;;;;6.45;2.10;;;19.50;99.90;;;;;;2603535;54;20049;31
2022/09/06 08:55:51;;;;;;;5.40;2.22;;;19.90;99.90;;;;;;2603044;54;20924;31
2022/09/06 08:58:32;;;;;;;5.75;2.22;;;20.20;99.90;;;;;;2603450;54;20026;31
2022/09/06 09:01:09;;;;;;;7.35;2.28;;;20.40;99.90;;;;;;2603457;54;20030;31
2022/09/06 09:03:45;;;;;;;5.53;1.98;;;20.60;99.90;;;;;;2621830;46;20894;31
2022/09/06 09:06:23;;;;;;;7.20;2.20;;;20.80;99.90;;;;;;2603369;54;20778;31
2022/09/06 09:09:01;;;;;;;6.80;2.22;;;21.10;99.90;;;;;;2603274;54;20819;31
2022/09/06 09:11:36;;;;;;;7.00;2.25;;;21.20;99.90;;;;;;2603387;54;20149;31
2022/09/06 09:14:14;;;;;;;3.13;1.95;;;21.50;99.90;;;;;;2621547;46;20937;31
2022/09/06 09:16:52;;;;;;;4.72;2.30;;;21.90;99.90;;;;;;2603574;54;20038;31
2022/09/06 09:19:30;;;;;;;5.75;2.13;;;22.20;99.90;;;;;;2603319;54;19935;31
2022/09/06 09:22:07;;;;;;;7.53;2.75;;;22.20;99.90;;;;;;2603213;54;20934;31
2022/09/06 09:24:42;;;;;;;5.90;2.20;;;22.20;99.90;;;;;;2603318;54;19935;31
2022/09/06 09:27:19;;;;;;;5.85;2.30;;;22.10;99.90;;;;;;2603196;54;20097;31
2022/09/06 09:30:00;;;;;;;5.33;2.37;;;22.10;99.90;;;;;;2603320;54;20049;31
2022/09/06 09:32:55;;;;;;;6.50;2.10;;;21.90;99.90;;;;;;2621821;46;20133;31
2022/09/06 09:35:35;;;;;;;8.50;2.50;;;21.90;99.90;;;;;;2603399;54;20954;31
2022/09/06 09:38:14;;;;;;;8.10;3.00;;;21.90;99.90;;;;;;2603611;54;20110;31
2022/09/06 09:40:52;;;;;;;7.53;2.60;;;21.90;99.90;;;;;;2602946;54;25063;31
2022/09/06 09:43:28;;;;;;;6.18;2.50;;;21.90;99.90;;;;;;2603401;54;20857;31
2022/09/06 09:46:14;;;;;;;4.75;2.30;;;21.80;99.90;;;;;;2603222;54;20054;31
2022/09/06 09:49:03;;;;;;;6.70;2.03;;;21.60;99.90;;;;;;2603336;54;20081;31
2022/09/06 09:51:39;;;;;;;4.90;2.33;;;21.40;99.90;;;;;;2603456;54;20896;31
2022/09/06 09:54:17;;;;;;;6.82;2.72;;;21.40;99.90;;;;;;2603220;54;20038;31
2022/09/06 09:56:53;;;;;;;4.22;2.53;;;21.30;99.90;;;;;;2603390;54;20772;31
2022/09/06 09:59:28;;;;;;;5.10;2.20;;;21.20;99.90;;;;;;2621817;46;20023;31
2022/09/06 10:02:03;;;;;;;4.40;2.07;;;21.20;99.90;;;;;;2603004;54;20053;31
2022/09/06 10:04:40;;;;;;;4.30;2.55;;;21.10;99.90;;;;;;2602836;54;20317;31
2022/09/06 10:07:16;;;;;;;5.30;2.20;;;21.00;99.90;;;;;;2603179;54;20853;31
2022/09/06 10:09:59;;;;;;;7.85;2.40;;;21.00;99.90;;;;;;2603006;54;20030;31
2022/09/06 10:12:34;;;;;;;5.28;2.30;;;21.10;99.90;;;;;;2603105;54;20831;31
2022/09/06 10:15:12;;;;;;;4.72;2.53;;;21.00;99.90;;;;;;2603166;54;20867;31
2022/09/06 10:17:52;;;;;;;7.40;2.45;;;21.00;99.90;;;;;;2603058;54;20049;31
2022/09/06 10:20:31;;;;;;;5.55;2.20;;;20.90;99.90;;;;;;2603487;54;20030;31
2022/09/06 10:23:08;;;;;;;3.15;2.15;;;20.80;99.90;;;;;;2621448;46;20037;31
2022/09/06 10:25:47;;;;;;;5.55;2.08;;;20.60;99.90;;;;;;2603066;54;20761;31
2022/09/06 10:28:30;;;;;;;4.07;2.28;;;20.50;99.90;;;;;;2603216;54;20078;31
2022/09/06 10:31:26;;;;;;;4.75;2.42;;;20.50;99.90;;;;;;2603302;54;20026;31
2022/09/06 10:34:00;;;;;;;5.33;2.53;;;20.50;99.90;;;;;;2603048;54;20031;31
2022/09/06 10:36:37;;;;;;;7.18;2.47;;;20.60;99.90;;;;;;2603096;54;20783;31
2022/09/06 10:39:17;;;;;;;7.10;2.57;;;20.70;99.90;;;;;;2603192;54;20140;31
2022/09/06 10:42:14;;;;;;;3.50;2.05;;;20.70;99.90;;;;;;2603860;54;20034;31
2022/09/06 10:44:59;;;;;;;3.60;1.95;;;20.80;99.90;;;;;;2603952;54;20057;31
2022/09/06 10:47:36;;;;;;;5.15;2.30;;;20.90;99.90;;;;;;2604045;54;20046;31
2022/09/06 10:50:13;;;;;;;5.10;2.05;;;21.00;99.90;;;;;;2603762;54;20052;31
2022/09/06 10:52:47;;;;;;;5.50;2.10;;;21.10;99.90;;;;;;2604028;54;20026;31
2022/09/06 10:55:22;;;;;;;6.88;2.25;;;21.20;99.90;;;;;;2603764;54;20042;31
2022/09/06 10:58:03;;;;;;;4.32;1.70;;;21.30;99.90;;;;;;2603672;54;20128;31
2022/09/06 11:00:54;;;;;;;3.28;1.88;;;21.40;99.90;;;;;;2603789;54;20030;31
2022/09/06 11:03:37;;;;;;;7.82;2.08;;;21.50;99.90;;;;;;2603679;54;20033;31
2022/09/06 11:06:31;;;;;;;3.85;1.80;;;21.70;99.90;;;;;;2603684;54;20935;31
2022/09/06 11:09:11;;;;;;;3.37;1.93;;;21.80;99.90;;;;;;2603488;54;20033;31
2022/09/06 11:11:46;;;;;;;5.75;2.35;;;21.90;99.90;;;;;;2603658;54;19934;31
2022/09/06 11:14:25;;;;;;;5.90;1.55;;;21.80;99.90;;;;;;2622458;46;20026;31
2022/09/06 11:17:03;;;;;;;4.00;1.77;;;21.80;99.90;;;;;;2603975;54;20026;31
2022/09/06 11:19:43;;;;;;;5.65;1.80;;;21.70;99.90;;;;;;2622283;46;19934;31
2022/09/06 11:22:44;;;;;;;7.10;1.65;;;21.60;99.90;;;;;;2702571;39;20996;31
2022/09/06 11:25:52;;;;;;;2.63;1.50;;;21.60;99.90;;;;;;2622199;46;20089;31
2022/09/06 11:28:31;;;;;;;3.15;1.40;;;21.60;99.90;;;;;;2603684;54;20037;31
2022/09/06 11:31:09;;;;;;;4.30;1.92;;;21.60;99.90;;;;;;2602925;54;20038;31
2022/09/06 11:34:10;;;;;;;2.27;1.47;;;21.70;99.90;;;;;;2603823;54;20030;31
2022/09/06 11:36:48;;;;;;;6.82;1.70;;;21.70;99.90;;;;;;2603628;54;20345;31
2022/09/06 11:39:28;;;;;;;7.67;1.50;;;21.70;99.90;;;;;;2603661;54;20039;31
2022/09/06 11:42:42;;;;;;;6.15;1.70;;;21.60;99.90;;;;;;2603789;54;20896;31
2022/09/06 11:45:20;;;;;;;3.22;1.40;;;21.60;99.70;;;;;;2603930;54;20906;31
2022/09/06 11:47:57;;;;;;;5.57;1.70;;;21.50;99.90;;;;;;2603623;54;20895;31
2022/09/06 11:50:58;;;;;;;5.25;2.00;;;21.50;99.90;;;;;;2603466;54;20897;31
2022/09/06 11:53:32;;;;;;;4.43;1.55;;;21.60;99.90;;;;;;2603550;54;21036;31
2022/09/06 11:56:19;;;;;;;5.10;1.70;;;21.70;99.90;;;;;;2603568;54;20026;31
2022/09/06 11:58:57;;;;;;;4.43;1.80;;;21.70;99.90;;;;;;2603835;54;20255;31
2022/09/06 12:01:39;;;;;;;3.13;1.70;;;21.70;99.90;;;;;;2603759;54;20034;31
2022/09/06 12:04:17;;;;;;;3.60;1.90;;;21.70;99.90;;;;;;2603559;54;20821;31
2022/09/06 12:07:09;;;;;;;3.85;1.92;;;21.70;99.90;;;;;;2622389;46;20828;31
2022/09/06 12:12:15;;;;;;;3.40;2.23;;;21.60;99.90;;;;;;2603765;54;20887;31
2022/09/06 12:14:53;;;;;;;3.67;1.92;;;21.60;99.90;;;;;;2621713;46;20960;31
2022/09/06 12:17:38;;;;;;;5.27;1.83;;;21.60;99.90;;;;;;2602820;54;20034;31
2022/09/06 12:20:30;;;;;;;5.18;1.80;;;21.60;99.90;;;;;;2603831;54;20876;31
2022/09/06 12:23:05;;;;;;;3.45;1.65;;;21.70;99.90;;;;;;2621805;46;20030;31
2022/09/06 12:25:57;;;;;;;3.80;1.90;;;21.60;99.90;;;;;;2603838;54;20033;31
2022/09/06 12:28:39;;;;;;;6.50;1.92;;;21.70;99.90;;;;;;2622103;46;20931;31
2022/09/06 12:31:33;;;;;;;3.45;2.05;;;21.60;99.90;;;;;;2603325;54;20042;31
2022/09/06 12:34:09;;;;;;;5.10;1.85;;;21.70;99.90;;;;;;2603447;54;20037;31
2022/09/06 12:37:00;;;;;;;3.20;1.77;;;21.60;99.90;;;;;;2603774;54;20928;31
2022/09/06 12:39:36;;;;;;;4.78;1.60;;;21.70;99.90;;;;;;2603607;54;20022;31
2022/09/06 12:42:13;;;;;;;4.88;1.83;;;21.70;99.90;;;;;;2602699;54;20966;31
2022/09/06 12:44:50;;;;;;;6.10;1.85;;;21.70;99.90;;;;;;2603453;54;20031;31
2022/09/06 12:47:27;;;;;;;2.63;1.53;;;21.80;99.90;;;;;;2622053;46;20871;31
2022/09/06 12:50:10;;;;;;;2.88;2.05;;;21.80;99.90;;;;;;2603363;54;20246;31
2022/09/06 12:52:52;;;;;;;6.55;2.00;;;21.90;99.90;;;;;;2603667;54;20749;31
2022/09/06 12:55:28;;;;;;;4.78;1.70;;;22.00;99.90;;;;;;2603478;54;20034;31
2022/09/06 12:58:06;;;;;;;5.60;1.55;;;22.00;99.90;;;;;;2621930;46;20026;31
2022/09/06 13:00:42;;;;;;;6.35;2.03;;;22.10;99.90;;;;;;2603658;54;20989;31
2022/09/06 13:03:21;;;;;;;4.18;1.80;;;22.20;99.90;;;;;;2603072;54;20058;31
2022/09/06 13:05:56;;;;;;;4.10;2.13;;;22.30;99.90;;;;;;2622416;46;20799;31
2022/09/06 13:08:35;;;;;;;3.67;2.00;;;22.50;99.90;;;;;;2603424;54;20156;31
2022/09/06 13:11:12;;;;;;;4.03;1.70;;;22.50;99.90;;;;;;2603585;54;20026;31
2022/09/06 13:13:50;;;;;;;4.90;2.33;;;22.60;99.90;;;;;;2603214;54;20918;31
2022/09/06 13:16:24;;;;;;;5.47;1.83;;;22.50;99.70;;;;;;2603520;54;20034;31
2022/09/06 13:19:12;;;;;;;4.10;1.80;;;22.60;99.30;;;;;;2603410;54;20037;31
2022/09/06 13:21:48;;;;;;;3.10;1.38;;;22.50;98.60;;;;;;2603551;54;20050;31
2022/09/06 13:24:27;;;;;;;2.25;1.77;;;22.50;99.20;;;;;;2603328;54;20093;31
2022/09/06 13:27:02;;;;;;;2.67;1.58;;;22.50;99.00;;;;;;2603619;54;20034;31
2022/09/06 13:29:37;;;;;;;4.97;2.00;;;22.40;98.90;;;;;;2603314;54;20034;31
2022/09/06 13:32:17;;;;;;;4.20;1.42;;;22.40;99.40;;;;;;2603273;54;20030;31
2022/09/06 13:34:55;;;;;;;2.90;1.60;;;22.30;99.70;;;;;;2603447;54;20031;31
2022/09/06 13:37:30;;;;;;;2.38;1.77;;;22.30;99.50;;;;;;2603539;54;20026;31
2022/09/06 13:40:22;;;;;;;5.65;1.90;;;22.20;99.70;;;;;;2603331;54;20041;31
2022/09/06 13:43:03;;;;;;;4.15;1.90;;;22.20;99.60;;;;;;2603326;54;20097;31
2022/09/06 13:45:39;;;;;;;3.72;1.85;;;22.10;99.30;;;;;;2603562;54;20865;31
2022/09/06 13:48:15;;;;;;;3.65;1.60;;;22.10;99.30;;;;;;2603208;54;20889;31
2022/09/06 13:51:09;;;;;;;6.70;1.80;;;22.10;99.30;;;;;;2603216;54;20137;31
2022/09/06 13:53:45;;;;;;;4.60;1.48;;;22.10;99.90;;;;;;2603236;54;20085;31
2022/09/06 13:56:23;;;;;;;4.05;1.33;;;22.10;98.60;;;;;;2603212;54;20844;31
2022/09/06 13:58:58;;;;;;;3.38;1.65;;;22.10;98.30;;;;;;2611571;46;20030;31